createdAt,value
2019-05-29T00:01:12.128Z,62.89
2019-05-29T00:05:10.157Z,64.56
2019-05-29T00:09:12.373Z,64.56
2019-05-29T00:13:14.534Z,65.52
2019-05-29T00:17:16.331Z,65.52
2019-05-29T00:21:18.681Z,64.74
2019-05-29T00:25:20.483Z,64.74
2019-05-29T00:29:22.231Z,64.97
2019-05-29T00:33:24.077Z,64.53
2019-05-29T00:37:26.187Z,64.45
2019-05-29T00:41:28.230Z,64.47
2019-05-29T00:45:30.129Z,64.95
2019-05-29T00:49:32.338Z,64.95
2019-05-29T00:53:34.682Z,64.74
2019-05-29T00:57:37.147Z,64.74
2019-05-29T01:01:38.898Z,64.37
2019-05-29T01:05:40.991Z,64.29
2019-05-29T01:09:42.814Z,65.42
2019-05-29T01:13:44.594Z,64.78
2019-05-29T01:17:46.318Z,64.17
2019-05-29T01:21:48.042Z,64.70
2019-05-29T01:25:49.778Z,65.33
2019-05-29T01:29:51.536Z,65.33
2019-05-29T01:33:56.373Z,64.76
2019-05-29T01:37:58.414Z,65.07
2019-05-29T01:42:00.798Z,65.62
2019-05-29T01:46:02.607Z,65.62
2019-05-29T01:50:05.250Z,66.19
2019-05-29T01:54:07.210Z,66.51
2019-05-29T01:58:09.410Z,67.48
2019-05-29T02:02:11.159Z,67.48
2019-05-29T02:06:13.314Z,66.89
2019-05-29T02:10:16.000Z,67.01
2019-05-29T02:14:18.477Z,67.30
2019-05-29T02:18:20.810Z,68.02
2019-05-29T02:22:23.091Z,68.60
2019-05-29T02:26:25.103Z,68.36
2019-05-29T02:30:30.359Z,68.40
2019-05-29T02:34:30.592Z,68.02
2019-05-29T02:38:32.362Z,69.12
2019-05-29T02:42:34.614Z,69.12
2019-05-29T02:46:36.572Z,69.02
2019-05-29T02:50:38.506Z,69.44
2019-05-29T02:54:40.255Z,69.17
2019-05-29T02:58:42.022Z,69.02
2019-05-29T03:02:43.782Z,69.08
2019-05-29T03:06:46.119Z,68.83
2019-05-29T03:10:47.851Z,68.75
2019-05-29T03:14:50.011Z,68.95
2019-05-29T03:18:51.733Z,69.16
2019-05-29T03:22:53.461Z,68.97
2019-05-29T03:26:55.220Z,69.03
2019-05-29T03:30:57.481Z,69.30
2019-05-29T03:34:59.397Z,69.32
2019-05-29T03:39:01.484Z,69.10
2019-05-29T03:43:03.688Z,69.21
2019-05-29T03:47:05.499Z,69.29
2019-05-29T03:51:07.249Z,68.81
2019-05-29T03:55:09.389Z,68.87
2019-05-29T03:59:11.372Z,68.89
2019-05-29T04:03:13.491Z,68.06
2019-05-29T04:07:15.261Z,67.86
2019-05-29T04:11:16.979Z,67.95
2019-05-29T04:15:19.002Z,67.82
2019-05-29T04:19:22.489Z,67.33
2019-05-29T04:23:27.902Z,67.13
2019-05-29T04:27:32.058Z,65.93
2019-05-29T04:31:34.471Z,65.90
2019-05-29T04:35:36.973Z,66.37
2019-05-29T04:39:39.421Z,65.76
2019-05-29T04:43:41.243Z,65.46
2019-05-29T04:47:43.334Z,65.77
2019-05-29T04:51:45.442Z,65.77
2019-05-29T04:55:47.272Z,65.58
2019-05-29T04:59:49.148Z,65.11
2019-05-29T05:03:51.468Z,64.48
2019-05-29T05:07:53.253Z,64.05
2019-05-29T05:11:55.052Z,64.38
2019-05-29T05:15:59.297Z,64.31
2019-05-29T05:20:01.124Z,63.83
2019-05-29T05:24:03.353Z,63.26
2019-05-29T05:28:05.080Z,62.53
2019-05-29T05:32:06.804Z,63.28
2019-05-29T05:36:08.898Z,62.56
2019-05-29T05:40:10.694Z,61.73
2019-05-29T05:44:12.814Z,60.83
2019-05-29T05:48:14.867Z,60.83
2019-05-29T05:52:16.897Z,59.93
2019-05-29T05:56:19.344Z,58.83
2019-05-29T06:00:31.969Z,58.83
2019-05-29T06:04:33.899Z,58.46
2019-05-29T06:09:03.969Z,57.34
2019-05-29T06:13:05.517Z,56.97
2019-05-29T06:17:07.998Z,56.37
2019-05-29T06:21:10.199Z,56.00
2019-05-29T06:25:12.457Z,55.42
2019-05-29T06:29:14.232Z,54.31
2019-05-29T06:33:16.452Z,53.17
2019-05-29T06:37:18.487Z,52.65
2019-05-29T06:41:20.953Z,53.41
2019-05-29T06:45:29.924Z,53.57
2019-05-29T06:49:31.805Z,52.50
2019-05-29T06:53:33.757Z,51.74
2019-05-29T06:57:36.193Z,50.35
2019-05-29T07:01:39.292Z,50.35
2019-05-29T07:05:46.613Z,49.39
2019-05-29T07:09:45.616Z,49.75
2019-05-29T07:13:50.110Z,49.18
2019-05-29T07:17:51.243Z,48.28
2019-05-29T07:21:53.353Z,49.66
2019-05-29T07:25:55.429Z,48.13
2019-05-29T07:29:57.530Z,49.13
2019-05-29T07:33:59.645Z,47.11
2019-05-29T07:38:02.165Z,46.22
2019-05-29T07:42:05.472Z,46.80
2019-05-29T07:46:07.714Z,47.48
2019-05-29T07:50:10.110Z,45.06
2019-05-29T07:54:12.502Z,42.89
2019-05-29T07:58:14.342Z,41.96
2019-05-29T08:02:16.577Z,43.16
2019-05-29T08:06:18.748Z,44.16
2019-05-29T08:10:21.216Z,40.99
2019-05-29T08:14:23.034Z,37.64
2019-05-29T08:18:24.825Z,38.78
2019-05-29T08:22:34.142Z,39.08
2019-05-29T08:26:30.280Z,36.30
2019-05-29T08:30:32.526Z,36.33
2019-05-29T08:34:34.309Z,36.99
2019-05-29T08:38:37.867Z,38.06
2019-05-29T08:42:40.959Z,38.94
2019-05-29T08:46:57.649Z,36.39
2019-05-29T08:50:47.792Z,36.37
2019-05-29T08:54:50.585Z,35.18
2019-05-29T08:58:52.668Z,37.63
2019-05-29T09:02:54.613Z,36.48
2019-05-29T09:06:57.177Z,36.11
2019-05-29T09:10:59.447Z,37.33
2019-05-29T09:15:01.238Z,36.68
2019-05-29T09:19:03.481Z,38.71
2019-05-29T09:23:05.283Z,36.63
2019-05-29T09:27:07.216Z,34.42
2019-05-29T09:31:09.374Z,34.71
2019-05-29T09:35:11.369Z,35.47
2019-05-29T09:39:16.185Z,32.98
2019-05-29T09:43:19.783Z,32.96
2019-05-29T09:47:22.316Z,33.67
2019-05-29T09:51:25.173Z,31.24
2019-05-29T09:55:27.756Z,33.48
2019-05-29T09:59:29.988Z,32.03
2019-05-29T10:03:31.775Z,34.18
2019-05-29T10:07:34.395Z,33.29
2019-05-29T10:11:36.256Z,32.69
2019-05-29T10:15:38.084Z,31.38
2019-05-29T10:19:40.406Z,31.06
2019-05-29T10:23:42.554Z,30.04
2019-05-29T10:27:44.586Z,31.22
2019-05-29T10:31:47.899Z,31.21
2019-05-29T10:35:53.838Z,30.40
2019-05-29T10:39:54.818Z,31.19
2019-05-29T10:43:56.780Z,30.69
2019-05-29T10:47:58.982Z,30.98
2019-05-29T10:52:14.402Z,32.13
2019-05-29T10:56:05.366Z,31.23
2019-05-29T11:00:07.694Z,31.29
2019-05-29T11:04:09.841Z,29.59
2019-05-29T11:08:12.025Z,31.40
2019-05-29T11:12:14.059Z,33.59
2019-05-29T11:16:16.482Z,32.60
2019-05-29T11:20:20.246Z,33.24
2019-05-29T11:24:22.072Z,32.75
2019-05-29T11:28:23.873Z,31.19
2019-05-29T11:32:25.969Z,30.05
2019-05-29T11:36:28.070Z,31.73
2019-05-29T11:40:30.345Z,34.78
2019-05-29T11:44:32.629Z,30.36
2019-05-29T11:48:34.598Z,29.14
2019-05-29T11:52:43.086Z,26.54
2019-05-29T11:56:40.666Z,27.60
2019-05-29T12:00:43.139Z,25.36
2019-05-29T12:04:45.324Z,28.02
2019-05-29T12:08:47.169Z,26.17
2019-05-29T12:12:49.320Z,25.22
2019-05-29T12:16:51.751Z,26.01
2019-05-29T12:20:53.977Z,27.26
2019-05-29T12:24:56.547Z,25.75
2019-05-29T12:29:04.768Z,27.46
2019-05-29T12:33:03.282Z,27.68
2019-05-29T12:37:06.145Z,26.78
2019-05-29T12:41:09.064Z,26.60
2019-05-29T12:45:11.786Z,26.03
2019-05-29T12:49:13.704Z,24.77
2019-05-29T12:53:29.763Z,24.10
2019-05-29T12:57:23.520Z,25.74
2019-05-29T13:01:25.604Z,26.58
2019-05-29T13:05:27.828Z,26.88
2019-05-29T13:09:29.860Z,28.12
2019-05-29T13:13:31.644Z,26.90
2019-05-29T13:17:33.591Z,31.25
2019-05-29T13:21:35.460Z,29.15
2019-05-29T13:25:37.260Z,26.34
2019-05-29T13:29:39.586Z,25.88
2019-05-29T13:33:42.070Z,26.95
2019-05-29T13:37:44.138Z,27.74
2019-05-29T13:41:46.094Z,29.71
2019-05-29T13:45:47.833Z,29.54
2019-05-29T13:49:50.197Z,31.13
2019-05-29T13:54:02.435Z,30.14
2019-05-29T13:57:57.604Z,29.02
2019-05-29T14:02:00.288Z,28.27
2019-05-29T14:06:03.706Z,27.13
2019-05-29T14:10:07.750Z,28.77
2019-05-29T14:14:13.002Z,30.15
2019-05-29T14:18:14.740Z,29.43
2019-05-29T14:22:16.576Z,28.08
2019-05-29T14:26:19.046Z,28.36
2019-05-29T14:30:21.781Z,26.95
2019-05-29T14:34:23.599Z,24.93
2019-05-29T14:38:25.372Z,24.73
2019-05-29T14:42:27.694Z,24.23
2019-05-29T14:46:29.605Z,25.06
2019-05-29T14:50:31.757Z,23.22
2019-05-29T14:54:41.603Z,24.88
2019-05-29T14:58:37.517Z,25.34
2019-05-29T15:02:39.622Z,25.70
2019-05-29T15:06:41.726Z,27.00
2019-05-29T15:10:43.885Z,27.86
2019-05-29T15:14:45.612Z,27.99
2019-05-29T15:18:47.715Z,27.51
2019-05-29T15:22:49.909Z,26.43
2019-05-29T15:26:51.657Z,28.31
2019-05-29T15:30:53.482Z,27.37
2019-05-29T15:34:55.615Z,26.97
2019-05-29T15:38:57.471Z,28.67
2019-05-29T15:42:59.847Z,28.87
2019-05-29T15:47:02.129Z,28.45
2019-05-29T15:51:04.729Z,29.61
2019-05-29T15:55:23.529Z,29.90
2019-05-29T15:59:12.597Z,31.61
2019-05-29T16:03:15.727Z,31.47
2019-05-29T16:07:18.243Z,28.14
2019-05-29T16:11:20.165Z,29.67
2019-05-29T16:15:22.229Z,28.74
2019-05-29T16:19:24.314Z,28.85
2019-05-29T16:23:35.132Z,28.69
2019-05-29T16:27:31.097Z,28.88
2019-05-29T16:31:33.433Z,29.37
2019-05-29T16:35:37.530Z,28.68
2019-05-29T16:39:39.177Z,30.22
2019-05-29T16:43:41.429Z,28.37
2019-05-29T16:47:43.295Z,24.48
2019-05-29T16:51:45.428Z,24.50
2019-05-29T16:55:53.726Z,22.33
2019-05-29T16:59:51.097Z,20.53
2019-05-29T17:03:53.329Z,19.47
2019-05-29T17:07:55.169Z,16.50
2019-05-29T17:11:57.736Z,16.11
2019-05-29T17:15:59.958Z,15.86
2019-05-29T17:20:02.120Z,17.07
2019-05-29T17:24:04.380Z,16.89
2019-05-29T17:28:06.840Z,16.60
2019-05-29T17:32:08.638Z,15.70
2019-05-29T17:36:10.411Z,16.00
2019-05-29T17:40:12.725Z,16.75
2019-05-29T17:44:15.809Z,16.54
2019-05-29T17:48:17.755Z,16.05
2019-05-29T17:52:20.087Z,18.58
2019-05-29T17:56:33.643Z,21.03
2019-05-29T18:00:26.690Z,22.03
2019-05-29T18:04:28.642Z,23.49
2019-05-29T18:08:31.104Z,23.79
2019-05-29T18:12:33.221Z,25.04
2019-05-29T18:16:36.842Z,26.23
2019-05-29T18:20:38.810Z,27.76
2019-05-29T18:24:40.821Z,27.67
2019-05-29T18:28:43.705Z,28.03
2019-05-29T18:32:46.229Z,29.46
2019-05-29T18:36:48.005Z,29.09
2019-05-29T18:40:50.194Z,28.69
2019-05-29T18:44:52.230Z,28.78
2019-05-29T18:48:54.181Z,28.84
2019-05-29T18:52:56.871Z,29.51
2019-05-29T18:57:14.366Z,30.38
2019-05-29T19:01:03.847Z,28.91
2019-05-29T19:05:06.791Z,29.93
2019-05-29T19:09:08.761Z,30.44
2019-05-29T19:13:10.840Z,32.64
2019-05-29T19:17:12.747Z,32.13
2019-05-29T19:21:14.819Z,32.14
2019-05-29T19:25:16.621Z,32.36
2019-05-29T19:29:18.673Z,34.14
2019-05-29T19:33:20.807Z,34.06
2019-05-29T19:37:23.745Z,34.51
2019-05-29T19:41:25.806Z,34.72
2019-05-29T19:45:28.575Z,34.60
2019-05-29T19:49:30.935Z,34.34
2019-05-29T19:53:33.495Z,35.72
2019-05-29T19:57:52.460Z,34.06
2019-05-29T20:01:40.572Z,34.25
2019-05-29T20:05:42.844Z,35.90
2019-05-29T20:09:45.052Z,35.52
2019-05-29T20:13:47.096Z,35.95
2019-05-29T20:17:49.274Z,37.88
2019-05-29T20:21:51.509Z,37.96
2019-05-29T20:25:53.618Z,37.75
2019-05-29T20:29:55.626Z,37.61
2019-05-29T20:33:57.554Z,38.16
2019-05-29T20:37:59.672Z,39.07
2019-05-29T20:42:02.248Z,38.74
2019-05-29T20:46:04.057Z,39.78
2019-05-29T20:50:06.509Z,40.39
2019-05-29T20:54:11.928Z,40.96
2019-05-29T20:58:24.207Z,40.85
2019-05-29T21:02:18.550Z,41.87
2019-05-29T21:06:20.539Z,41.88
2019-05-29T21:10:22.442Z,42.40
2019-05-29T21:14:24.496Z,41.55
2019-05-29T21:18:26.792Z,42.57
2019-05-29T21:22:28.588Z,41.94
2019-05-29T21:26:30.545Z,41.65
2019-05-29T21:30:32.830Z,41.41
2019-05-29T21:34:35.716Z,41.58
2019-05-29T21:38:38.068Z,41.77
2019-05-29T21:42:40.583Z,41.90
2019-05-29T21:46:43.059Z,42.28
2019-05-29T21:50:45.475Z,42.87
2019-05-29T21:54:48.184Z,43.22
2019-05-29T21:59:03.134Z,42.92
2019-05-29T22:02:53.974Z,42.63
2019-05-29T22:06:55.812Z,42.15
2019-05-29T22:10:58.153Z,43.10
2019-05-29T22:15:01.494Z,42.64
2019-05-29T22:19:04.319Z,42.25
2019-05-29T22:23:07.856Z,42.21
2019-05-29T22:27:10.913Z,42.02
2019-05-29T22:31:13.042Z,42.48
2019-05-29T22:35:15.701Z,42.56
2019-05-29T22:39:18.718Z,42.70
2019-05-29T22:43:20.938Z,42.58
2019-05-29T22:47:23.935Z,42.91
2019-05-29T22:54:59.977Z,43.72
2019-05-29T22:59:02.324Z,44.81
2019-05-29T23:03:04.371Z,43.90
2019-05-29T23:07:06.126Z,43.95
2019-05-29T23:11:08.375Z,43.70
2019-05-29T23:15:10.125Z,44.18
2019-05-29T23:19:12.603Z,44.88
2019-05-29T23:23:15.158Z,45.04
2019-05-29T23:27:17.307Z,45.44
2019-05-29T23:31:19.590Z,45.50
2019-05-29T23:35:21.418Z,45.62
2019-05-29T23:39:23.164Z,46.04
2019-05-29T23:43:24.888Z,46.23
2019-05-29T23:47:26.769Z,46.72
2019-05-29T23:51:28.829Z,46.89
2019-05-29T23:55:30.625Z,47.50
2019-05-29T23:59:32.685Z,47.67
